sensor_id;sensor_type;location;lat;lon;timestamp;P1;durP1;ratioP1;P2;durP2;ratioP2
7398;SDS011;3740;50.700;7.184;2023-11-21T00:00:15;6.83;;;6.23;;
7398;SDS011;3740;50.700;7.184;2023-11-21T00:02:41;7.07;;;6.30;;
7398;SDS011;3740;50.700;7.184;2023-11-21T00:05:08;7.03;;;6.33;;
7398;SDS011;3740;50.700;7.184;2023-11-21T00:07:35;6.80;;;6.13;;
7398;SDS011;3740;50.700;7.184;2023-11-21T00:10:04;7.27;;;6.60;;
7398;SDS011;3740;50.700;7.184;2023-11-21T00:12:30;8.87;;;6.90;;
7398;SDS011;3740;50.700;7.184;2023-11-21T00:14:56;7.10;;;6.40;;
7398;SDS011;3740;50.700;7.184;2023-11-21T00:17:22;8.10;;;7.23;;
7398;SDS011;3740;50.700;7.184;2023-11-21T00:19:49;8.20;;;7.23;;
7398;SDS011;3740;50.700;7.184;2023-11-21T00:22:17;7.10;;;6.50;;
7398;SDS011;3740;50.700;7.184;2023-11-21T00:24:43;7.57;;;6.77;;
7398;SDS011;3740;50.700;7.184;2023-11-21T00:27:09;7.37;;;6.67;;
7398;SDS011;3740;50.700;7.184;2023-11-21T00:29:34;8.67;;;7.27;;
7398;SDS011;3740;50.700;7.184;2023-11-21T00:32:00;8.47;;;6.77;;
7398;SDS011;3740;50.700;7.184;2023-11-21T00:34:25;7.00;;;6.40;;
7398;SDS011;3740;50.700;7.184;2023-11-21T00:36:51;7.07;;;6.37;;
7398;SDS011;3740;50.700;7.184;2023-11-21T00:39:17;6.57;;;5.87;;
7398;SDS011;3740;50.700;7.184;2023-11-21T00:41:42;6.90;;;6.30;;
7398;SDS011;3740;50.700;7.184;2023-11-21T00:44:09;7.43;;;6.73;;
7398;SDS011;3740;50.700;7.184;2023-11-21T00:46:35;7.10;;;6.43;;
7398;SDS011;3740;50.700;7.184;2023-11-21T00:49:01;6.90;;;6.30;;
7398;SDS011;3740;50.700;7.184;2023-11-21T00:51:29;6.60;;;6.00;;
7398;SDS011;3740;50.700;7.184;2023-11-21T00:53:55;6.33;;;5.80;;
7398;SDS011;3740;50.700;7.184;2023-11-21T00:56:20;6.73;;;6.13;;
7398;SDS011;3740;50.700;7.184;2023-11-21T00:58:46;7.83;;;6.33;;
7398;SDS011;3740;50.700;7.184;2023-11-21T01:01:15;6.47;;;5.90;;
7398;SDS011;3740;50.700;7.184;2023-11-21T01:03:41;6.30;;;5.70;;
7398;SDS011;3740;50.700;7.184;2023-11-21T01:06:06;7.13;;;5.93;;
7398;SDS011;3740;50.700;7.184;2023-11-21T01:08:33;6.60;;;6.00;;
7398;SDS011;3740;50.700;7.184;2023-11-21T01:10:59;7.07;;;5.90;;
7398;SDS011;3740;50.700;7.184;2023-11-21T01:13:25;7.33;;;6.63;;
7398;SDS011;3740;50.700;7.184;2023-11-21T01:15:52;6.50;;;6.00;;
7398;SDS011;3740;50.700;7.184;2023-11-21T01:18:18;7.37;;;6.57;;
7398;SDS011;3740;50.700;7.184;2023-11-21T01:20:43;7.20;;;6.60;;
7398;SDS011;3740;50.700;7.184;2023-11-21T01:23:11;8.07;;;7.27;;
7398;SDS011;3740;50.700;7.184;2023-11-21T01:25:38;7.40;;;6.80;;
7398;SDS011;3740;50.700;7.184;2023-11-21T01:28:03;8.27;;;7.57;;
7398;SDS011;3740;50.700;7.184;2023-11-21T01:30:29;9.53;;;8.60;;
7398;SDS011;3740;50.700;7.184;2023-11-21T01:32:54;9.17;;;8.37;;
7398;SDS011;3740;50.700;7.184;2023-11-21T01:35:20;8.83;;;8.03;;
7398;SDS011;3740;50.700;7.184;2023-11-21T01:37:45;9.40;;;8.50;;
7398;SDS011;3740;50.700;7.184;2023-11-21T01:40:13;9.30;;;8.50;;
7398;SDS011;3740;50.700;7.184;2023-11-21T01:42:39;9.20;;;8.40;;
7398;SDS011;3740;50.700;7.184;2023-11-21T01:45:06;9.50;;;8.60;;
7398;SDS011;3740;50.700;7.184;2023-11-21T01:47:33;8.77;;;8.03;;
7398;SDS011;3740;50.700;7.184;2023-11-21T01:50:01;8.80;;;8.00;;
7398;SDS011;3740;50.700;7.184;2023-11-21T01:52:29;9.67;;;8.83;;
7398;SDS011;3740;50.700;7.184;2023-11-21T01:54:55;10.87;;;9.77;;
7398;SDS011;3740;50.700;7.184;2023-11-21T01:57:21;9.97;;;8.97;;
7398;SDS011;3740;50.700;7.184;2023-11-21T01:59:47;9.73;;;8.73;;
7398;SDS011;3740;50.700;7.184;2023-11-21T02:02:14;9.70;;;8.80;;
7398;SDS011;3740;50.700;7.184;2023-11-21T02:04:40;9.67;;;8.63;;
7398;SDS011;3740;50.700;7.184;2023-11-21T02:07:06;8.90;;;8.03;;
7398;SDS011;3740;50.700;7.184;2023-11-21T02:09:32;9.20;;;8.20;;
7398;SDS011;3740;50.700;7.184;2023-11-21T02:12:03;9.67;;;8.67;;
7398;SDS011;3740;50.700;7.184;2023-11-21T02:14:29;9.00;;;8.20;;
7398;SDS011;3740;50.700;7.184;2023-11-21T02:16:55;9.33;;;8.43;;
7398;SDS011;3740;50.700;7.184;2023-11-21T02:19:22;9.13;;;8.27;;
7398;SDS011;3740;50.700;7.184;2023-11-21T02:21:50;8.57;;;7.77;;
7398;SDS011;3740;50.700;7.184;2023-11-21T02:24:26;8.80;;;7.90;;
7398;SDS011;3740;50.700;7.184;2023-11-21T02:26:52;9.20;;;8.23;;
7398;SDS011;3740;50.700;7.184;2023-11-21T02:29:18;8.87;;;7.97;;
7398;SDS011;3740;50.700;7.184;2023-11-21T02:31:47;8.07;;;7.27;;
7398;SDS011;3740;50.700;7.184;2023-11-21T02:34:17;8.87;;;8.17;;
7398;SDS011;3740;50.700;7.184;2023-11-21T02:36:43;8.87;;;8.10;;
7398;SDS011;3740;50.700;7.184;2023-11-21T02:39:12;8.90;;;7.93;;
7398;SDS011;3740;50.700;7.184;2023-11-21T02:41:38;8.63;;;7.83;;
7398;SDS011;3740;50.700;7.184;2023-11-21T02:44:04;8.77;;;7.90;;
7398;SDS011;3740;50.700;7.184;2023-11-21T02:46:31;8.67;;;7.90;;
7398;SDS011;3740;50.700;7.184;2023-11-21T02:48:59;9.23;;;8.43;;
7398;SDS011;3740;50.700;7.184;2023-11-21T02:51:28;9.83;;;7.97;;
7398;SDS011;3740;50.700;7.184;2023-11-21T02:53:54;9.60;;;8.60;;
7398;SDS011;3740;50.700;7.184;2023-11-21T02:56:23;9.40;;;8.50;;
7398;SDS011;3740;50.700;7.184;2023-11-21T02:58:49;10.53;;;9.53;;
7398;SDS011;3740;50.700;7.184;2023-11-21T03:01:15;9.73;;;8.90;;
7398;SDS011;3740;50.700;7.184;2023-11-21T03:03:42;10.20;;;9.30;;
7398;SDS011;3740;50.700;7.184;2023-11-21T03:06:07;10.77;;;9.47;;
7398;SDS011;3740;50.700;7.184;2023-11-21T03:08:33;9.70;;;8.90;;
7398;SDS011;3740;50.700;7.184;2023-11-21T03:10:59;9.90;;;8.70;;
7398;SDS011;3740;50.700;7.184;2023-11-21T03:13:25;9.30;;;8.43;;
7398;SDS011;3740;50.700;7.184;2023-11-21T03:15:50;10.30;;;9.20;;
7398;SDS011;3740;50.700;7.184;2023-11-21T03:18:16;9.87;;;8.87;;
7398;SDS011;3740;50.700;7.184;2023-11-21T03:20:43;9.83;;;8.83;;
7398;SDS011;3740;50.700;7.184;2023-11-21T03:23:11;10.17;;;9.20;;
7398;SDS011;3740;50.700;7.184;2023-11-21T03:25:37;9.07;;;8.27;;
7398;SDS011;3740;50.700;7.184;2023-11-21T03:28:02;9.40;;;8.50;;
7398;SDS011;3740;50.700;7.184;2023-11-21T03:30:28;10.03;;;9.00;;
7398;SDS011;3740;50.700;7.184;2023-11-21T03:32:53;9.80;;;8.90;;
7398;SDS011;3740;50.700;7.184;2023-11-21T03:35:19;10.90;;;9.20;;
7398;SDS011;3740;50.700;7.184;2023-11-21T03:37:46;9.97;;;8.97;;
7398;SDS011;3740;50.700;7.184;2023-11-21T03:40:11;10.00;;;9.10;;
7398;SDS011;3740;50.700;7.184;2023-11-21T03:42:37;11.40;;;9.20;;
7398;SDS011;3740;50.700;7.184;2023-11-21T03:45:04;10.03;;;9.03;;
7398;SDS011;3740;50.700;7.184;2023-11-21T03:47:30;9.93;;;8.93;;
7398;SDS011;3740;50.700;7.184;2023-11-21T03:49:56;10.07;;;8.97;;
7398;SDS011;3740;50.700;7.184;2023-11-21T03:52:21;9.93;;;9.03;;
7398;SDS011;3740;50.700;7.184;2023-11-21T03:54:47;13.60;;;9.23;;
7398;SDS011;3740;50.700;7.184;2023-11-21T03:57:12;9.40;;;8.57;;
7398;SDS011;3740;50.700;7.184;2023-11-21T03:59:41;9.60;;;8.63;;
7398;SDS011;3740;50.700;7.184;2023-11-21T04:02:08;10.50;;;9.43;;
7398;SDS011;3740;50.700;7.184;2023-11-21T04:04:34;10.57;;;9.47;;
7398;SDS011;3740;50.700;7.184;2023-11-21T04:07:00;10.13;;;9.13;;
7398;SDS011;3740;50.700;7.184;2023-11-21T04:09:26;10.53;;;8.97;;
7398;SDS011;3740;50.700;7.184;2023-11-21T04:11:52;10.00;;;9.07;;
7398;SDS011;3740;50.700;7.184;2023-11-21T04:14:18;10.20;;;9.30;;
7398;SDS011;3740;50.700;7.184;2023-11-21T04:16:43;10.43;;;9.27;;
7398;SDS011;3740;50.700;7.184;2023-11-21T04:19:09;10.93;;;9.83;;
7398;SDS011;3740;50.700;7.184;2023-11-21T04:21:36;9.90;;;8.97;;
7398;SDS011;3740;50.700;7.184;2023-11-21T04:24:02;12.10;;;9.70;;
7398;SDS011;3740;50.700;7.184;2023-11-21T04:26:28;12.40;;;10.90;;
7398;SDS011;3740;50.700;7.184;2023-11-21T04:28:53;12.63;;;11.33;;
7398;SDS011;3740;50.700;7.184;2023-11-21T04:31:19;11.70;;;10.57;;
7398;SDS011;3740;50.700;7.184;2023-11-21T04:33:44;12.77;;;11.47;;
7398;SDS011;3740;50.700;7.184;2023-11-21T04:36:10;13.93;;;12.53;;
7398;SDS011;3740;50.700;7.184;2023-11-21T04:38:35;14.20;;;12.77;;
7398;SDS011;3740;50.700;7.184;2023-11-21T04:41:01;13.43;;;12.23;;
7398;SDS011;3740;50.700;7.184;2023-11-21T04:43:27;14.30;;;12.90;;
7398;SDS011;3740;50.700;7.184;2023-11-21T04:45:52;14.13;;;12.83;;
7398;SDS011;3740;50.700;7.184;2023-11-21T04:48:19;15.63;;;14.10;;
7398;SDS011;3740;50.700;7.184;2023-11-21T04:50:45;15.40;;;13.90;;
7398;SDS011;3740;50.700;7.184;2023-11-21T04:53:11;16.87;;;15.10;;
7398;SDS011;3740;50.700;7.184;2023-11-21T04:55:39;15.40;;;13.90;;
7398;SDS011;3740;50.700;7.184;2023-11-21T04:58:05;16.53;;;14.90;;
7398;SDS011;3740;50.700;7.184;2023-11-21T05:00:31;18.50;;;15.77;;
7398;SDS011;3740;50.700;7.184;2023-11-21T05:02:56;17.47;;;15.70;;
7398;SDS011;3740;50.700;7.184;2023-11-21T05:05:22;16.53;;;15.00;;
7398;SDS011;3740;50.700;7.184;2023-11-21T05:07:49;18.20;;;15.80;;
7398;SDS011;3740;50.700;7.184;2023-11-21T05:10:14;17.40;;;15.70;;
7398;SDS011;3740;50.700;7.184;2023-11-21T05:12:40;19.67;;;15.60;;
7398;SDS011;3740;50.700;7.184;2023-11-21T05:15:07;16.73;;;15.03;;
7398;SDS011;3740;50.700;7.184;2023-11-21T05:17:36;16.43;;;14.80;;
7398;SDS011;3740;50.700;7.184;2023-11-21T05:20:03;17.53;;;15.90;;
7398;SDS011;3740;50.700;7.184;2023-11-21T05:22:33;17.60;;;15.83;;
7398;SDS011;3740;50.700;7.184;2023-11-21T05:24:59;17.30;;;15.60;;
7398;SDS011;3740;50.700;7.184;2023-11-21T05:27:25;16.83;;;15.13;;
7398;SDS011;3740;50.700;7.184;2023-11-21T05:29:51;17.57;;;15.50;;
7398;SDS011;3740;50.700;7.184;2023-11-21T05:32:16;17.77;;;16.03;;
7398;SDS011;3740;50.700;7.184;2023-11-21T05:34:42;18.40;;;16.33;;
7398;SDS011;3740;50.700;7.184;2023-11-21T05:37:08;20.23;;;18.20;;
7398;SDS011;3740;50.700;7.184;2023-11-21T05:39:33;18.77;;;16.77;;
7398;SDS011;3740;50.700;7.184;2023-11-21T05:42:00;19.17;;;17.13;;
7398;SDS011;3740;50.700;7.184;2023-11-21T05:44:26;18.77;;;16.63;;
7398;SDS011;3740;50.700;7.184;2023-11-21T05:46:51;18.97;;;16.97;;
7398;SDS011;3740;50.700;7.184;2023-11-21T05:49:18;20.17;;;16.87;;
7398;SDS011;3740;50.700;7.184;2023-11-21T05:51:46;18.53;;;16.70;;
7398;SDS011;3740;50.700;7.184;2023-11-21T05:54:12;19.33;;;17.37;;
7398;SDS011;3740;50.700;7.184;2023-11-21T05:56:38;19.33;;;17.33;;
7398;SDS011;3740;50.700;7.184;2023-11-21T05:59:03;22.17;;;18.80;;
7398;SDS011;3740;50.700;7.184;2023-11-21T06:01:29;23.00;;;20.47;;
7398;SDS011;3740;50.700;7.184;2023-11-21T06:03:54;21.87;;;19.30;;
7398;SDS011;3740;50.700;7.184;2023-11-21T06:06:20;23.00;;;20.67;;
7398;SDS011;3740;50.700;7.184;2023-11-21T06:08:48;23.27;;;20.83;;
7398;SDS011;3740;50.700;7.184;2023-11-21T06:11:14;23.33;;;20.93;;
7398;SDS011;3740;50.700;7.184;2023-11-21T06:13:39;23.10;;;20.53;;
7398;SDS011;3740;50.700;7.184;2023-11-21T06:16:05;23.27;;;20.90;;
7398;SDS011;3740;50.700;7.184;2023-11-21T06:18:31;25.30;;;20.97;;
7398;SDS011;3740;50.700;7.184;2023-11-21T06:20:56;22.93;;;20.50;;
7398;SDS011;3740;50.700;7.184;2023-11-21T06:23:23;22.37;;;20.00;;
7398;SDS011;3740;50.700;7.184;2023-11-21T06:25:48;23.60;;;21.07;;
7398;SDS011;3740;50.700;7.184;2023-11-21T06:28:14;23.93;;;21.03;;
7398;SDS011;3740;50.700;7.184;2023-11-21T06:30:42;23.33;;;20.97;;
7398;SDS011;3740;50.700;7.184;2023-11-21T06:33:09;23.83;;;21.17;;
7398;SDS011;3740;50.700;7.184;2023-11-21T06:35:34;22.97;;;20.70;;
7398;SDS011;3740;50.700;7.184;2023-11-21T06:38:00;25.20;;;20.67;;
7398;SDS011;3740;50.700;7.184;2023-11-21T06:40:25;22.90;;;20.27;;
7398;SDS011;3740;50.700;7.184;2023-11-21T06:42:51;25.67;;;22.47;;
7398;SDS011;3740;50.700;7.184;2023-11-21T06:45:17;22.37;;;19.93;;
7398;SDS011;3740;50.700;7.184;2023-11-21T06:47:42;23.27;;;20.57;;
7398;SDS011;3740;50.700;7.184;2023-11-21T06:50:08;22.30;;;19.90;;
7398;SDS011;3740;50.700;7.184;2023-11-21T06:52:34;21.57;;;19.27;;
7398;SDS011;3740;50.700;7.184;2023-11-21T06:54:59;24.17;;;20.97;;
7398;SDS011;3740;50.700;7.184;2023-11-21T06:57:26;24.17;;;20.50;;
7398;SDS011;3740;50.700;7.184;2023-11-21T06:59:51;22.30;;;20.00;;
7398;SDS011;3740;50.700;7.184;2023-11-21T07:02:17;23.77;;;21.07;;
7398;SDS011;3740;50.700;7.184;2023-11-21T07:04:44;23.27;;;20.83;;
7398;SDS011;3740;50.700;7.184;2023-11-21T07:07:11;20.80;;;18.63;;
7398;SDS011;3740;50.700;7.184;2023-11-21T07:09:37;22.80;;;20.40;;
7398;SDS011;3740;50.700;7.184;2023-11-21T07:12:03;21.57;;;19.30;;
7398;SDS011;3740;50.700;7.184;2023-11-21T07:14:31;21.37;;;19.17;;
7398;SDS011;3740;50.700;7.184;2023-11-21T07:16:57;22.50;;;20.10;;
7398;SDS011;3740;50.700;7.184;2023-11-21T07:19:22;22.70;;;20.33;;
7398;SDS011;3740;50.700;7.184;2023-11-21T07:21:48;22.30;;;19.13;;
7398;SDS011;3740;50.700;7.184;2023-11-21T07:24:17;20.23;;;18.07;;
7398;SDS011;3740;50.700;7.184;2023-11-21T07:26:43;19.03;;;17.03;;
7398;SDS011;3740;50.700;7.184;2023-11-21T07:29:08;21.17;;;18.57;;
7398;SDS011;3740;50.700;7.184;2023-11-21T07:31:34;20.67;;;17.93;;
7398;SDS011;3740;50.700;7.184;2023-11-21T07:34:00;19.73;;;17.67;;
7398;SDS011;3740;50.700;7.184;2023-11-21T07:36:25;21.10;;;17.43;;
7398;SDS011;3740;50.700;7.184;2023-11-21T07:38:51;20.47;;;17.80;;
7398;SDS011;3740;50.700;7.184;2023-11-21T07:41:17;18.33;;;16.50;;
7398;SDS011;3740;50.700;7.184;2023-11-21T07:43:43;19.57;;;16.90;;
7398;SDS011;3740;50.700;7.184;2023-11-21T07:46:09;23.27;;;18.10;;
7398;SDS011;3740;50.700;7.184;2023-11-21T07:48:37;18.47;;;16.47;;
7398;SDS011;3740;50.700;7.184;2023-11-21T07:51:03;19.93;;;17.13;;
7398;SDS011;3740;50.700;7.184;2023-11-21T07:53:29;21.30;;;16.93;;
7398;SDS011;3740;50.700;7.184;2023-11-21T07:56:05;21.30;;;17.63;;
7398;SDS011;3740;50.700;7.184;2023-11-21T07:58:32;20.70;;;16.93;;
7398;SDS011;3740;50.700;7.184;2023-11-21T08:01:00;19.13;;;16.63;;
7398;SDS011;3740;50.700;7.184;2023-11-21T08:03:26;20.90;;;17.57;;
7398;SDS011;3740;50.700;7.184;2023-11-21T08:05:52;20.20;;;16.90;;
7398;SDS011;3740;50.700;7.184;2023-11-21T08:08:18;18.13;;;16.33;;
7398;SDS011;3740;50.700;7.184;2023-11-21T08:10:44;19.38;;;17.30;;
7398;SDS011;3740;50.700;7.184;2023-11-21T08:13:13;18.00;;;16.10;;
7398;SDS011;3740;50.700;7.184;2023-11-21T08:15:41;19.10;;;16.60;;
7398;SDS011;3740;50.700;7.184;2023-11-21T08:18:11;20.77;;;17.60;;
7398;SDS011;3740;50.700;7.184;2023-11-21T08:20:37;19.05;;;16.88;;
7398;SDS011;3740;50.700;7.184;2023-11-21T08:23:04;19.20;;;17.20;;
7398;SDS011;3740;50.700;7.184;2023-11-21T08:25:30;19.90;;;17.80;;
7398;SDS011;3740;50.700;7.184;2023-11-21T08:27:56;20.33;;;18.20;;
7398;SDS011;3740;50.700;7.184;2023-11-21T08:30:22;20.87;;;17.90;;
7398;SDS011;3740;50.700;7.184;2023-11-21T08:32:52;21.87;;;18.37;;
7398;SDS011;3740;50.700;7.184;2023-11-21T08:35:18;19.00;;;16.77;;
7398;SDS011;3740;50.700;7.184;2023-11-21T08:37:56;19.93;;;16.93;;
7398;SDS011;3740;50.700;7.184;2023-11-21T08:40:27;18.70;;;16.03;;
7398;SDS011;3740;50.700;7.184;2023-11-21T08:42:57;21.63;;;19.10;;
7398;SDS011;3740;50.700;7.184;2023-11-21T08:45:24;22.87;;;19.07;;
7398;SDS011;3740;50.700;7.184;2023-11-21T08:47:50;22.00;;;18.13;;
7398;SDS011;3740;50.700;7.184;2023-11-21T08:50:16;21.43;;;19.17;;
7398;SDS011;3740;50.700;7.184;2023-11-21T08:52:43;27.90;;;24.90;;
7398;SDS011;3740;50.700;7.184;2023-11-21T08:55:09;25.43;;;22.17;;
7398;SDS011;3740;50.700;7.184;2023-11-21T08:57:37;20.87;;;18.37;;
7398;SDS011;3740;50.700;7.184;2023-11-21T09:00:04;23.53;;;20.27;;
7398;SDS011;3740;50.700;7.184;2023-11-21T09:02:32;23.00;;;19.60;;
7398;SDS011;3740;50.700;7.184;2023-11-21T09:05:02;23.23;;;19.30;;
7398;SDS011;3740;50.700;7.184;2023-11-21T09:07:29;24.30;;;19.50;;
7398;SDS011;3740;50.700;7.184;2023-11-21T09:09:54;24.70;;;20.20;;
7398;SDS011;3740;50.700;7.184;2023-11-21T09:12:20;24.77;;;19.80;;
7398;SDS011;3740;50.700;7.184;2023-11-21T09:14:46;24.90;;;19.87;;
7398;SDS011;3740;50.700;7.184;2023-11-21T09:17:12;25.20;;;22.60;;
7398;SDS011;3740;50.700;7.184;2023-11-21T09:19:38;25.77;;;19.40;;
7398;SDS011;3740;50.700;7.184;2023-11-21T09:22:03;26.53;;;20.40;;
7398;SDS011;3740;50.700;7.184;2023-11-21T09:24:30;24.40;;;20.13;;
7398;SDS011;3740;50.700;7.184;2023-11-21T09:26:56;26.33;;;21.40;;
7398;SDS011;3740;50.700;7.184;2023-11-21T09:29:22;25.30;;;21.33;;
7398;SDS011;3740;50.700;7.184;2023-11-21T09:31:47;31.37;;;24.77;;
7398;SDS011;3740;50.700;7.184;2023-11-21T09:34:16;32.00;;;24.57;;
7398;SDS011;3740;50.700;7.184;2023-11-21T09:36:41;26.53;;;21.83;;
7398;SDS011;3740;50.700;7.184;2023-11-21T09:39:10;28.17;;;22.67;;
7398;SDS011;3740;50.700;7.184;2023-11-21T09:41:52;25.83;;;22.20;;
7398;SDS011;3740;50.700;7.184;2023-11-21T09:45:05;27.40;;;21.80;;
7398;SDS011;3740;50.700;7.184;2023-11-21T09:47:16;25.97;;;19.50;;
7398;SDS011;3740;50.700;7.184;2023-11-21T09:49:43;26.33;;;19.90;;
7398;SDS011;3740;50.700;7.184;2023-11-21T09:52:24;23.37;;;18.90;;
7398;SDS011;3740;50.700;7.184;2023-11-21T09:54:52;24.10;;;19.90;;
7398;SDS011;3740;50.700;7.184;2023-11-21T09:57:21;22.83;;;19.17;;
7398;SDS011;3740;50.700;7.184;2023-11-21T09:59:53;23.40;;;19.77;;
7398;SDS011;3740;50.700;7.184;2023-11-21T10:02:27;24.47;;;19.97;;
7398;SDS011;3740;50.700;7.184;2023-11-21T10:04:55;28.63;;;21.60;;
7398;SDS011;3740;50.700;7.184;2023-11-21T10:07:21;23.30;;;20.53;;
7398;SDS011;3740;50.700;7.184;2023-11-21T10:09:48;27.30;;;21.90;;
7398;SDS011;3740;50.700;7.184;2023-11-21T10:12:16;24.77;;;21.23;;
7398;SDS011;3740;50.700;7.184;2023-11-21T10:14:42;25.07;;;22.33;;
7398;SDS011;3740;50.700;7.184;2023-11-21T10:17:10;26.87;;;23.03;;
7398;SDS011;3740;50.700;7.184;2023-11-21T10:19:37;27.97;;;23.53;;
7398;SDS011;3740;50.700;7.184;2023-11-21T10:22:04;26.33;;;23.37;;
7398;SDS011;3740;50.700;7.184;2023-11-21T10:24:32;27.20;;;22.83;;
7398;SDS011;3740;50.700;7.184;2023-11-21T10:26:58;24.70;;;21.63;;
7398;SDS011;3740;50.700;7.184;2023-11-21T10:29:23;25.67;;;22.87;;
7398;SDS011;3740;50.700;7.184;2023-11-21T10:31:51;28.17;;;25.10;;
7398;SDS011;3740;50.700;7.184;2023-11-21T10:34:20;32.70;;;27.33;;
7398;SDS011;3740;50.700;7.184;2023-11-21T10:36:46;29.77;;;26.57;;
7398;SDS011;3740;50.700;7.184;2023-11-21T10:39:21;28.67;;;24.77;;
7398;SDS011;3740;50.700;7.184;2023-11-21T10:41:49;29.83;;;24.60;;
7398;SDS011;3740;50.700;7.184;2023-11-21T10:44:16;28.17;;;24.20;;
7398;SDS011;3740;50.700;7.184;2023-11-21T10:46:46;25.30;;;22.33;;
7398;SDS011;3740;50.700;7.184;2023-11-21T10:49:16;25.57;;;22.10;;
7398;SDS011;3740;50.700;7.184;2023-11-21T10:51:43;26.43;;;23.03;;
7398;SDS011;3740;50.700;7.184;2023-11-21T10:54:09;25.53;;;22.67;;
7398;SDS011;3740;50.700;7.184;2023-11-21T10:56:34;24.07;;;21.47;;
7398;SDS011;3740;50.700;7.184;2023-11-21T10:59:06;23.93;;;21.33;;
7398;SDS011;3740;50.700;7.184;2023-11-21T11:01:34;26.27;;;22.37;;
7398;SDS011;3740;50.700;7.184;2023-11-21T11:04:00;25.40;;;22.47;;
7398;SDS011;3740;50.700;7.184;2023-11-21T11:06:29;24.63;;;21.70;;
7398;SDS011;3740;50.700;7.184;2023-11-21T11:08:57;26.03;;;22.97;;
7398;SDS011;3740;50.700;7.184;2023-11-21T11:11:25;26.10;;;22.87;;
7398;SDS011;3740;50.700;7.184;2023-11-21T11:13:50;24.43;;;21.43;;
7398;SDS011;3740;50.700;7.184;2023-11-21T11:16:18;26.97;;;22.63;;
7398;SDS011;3740;50.700;7.184;2023-11-21T11:18:43;24.27;;;21.43;;
7398;SDS011;3740;50.700;7.184;2023-11-21T11:21:20;23.33;;;20.63;;
7398;SDS011;3740;50.700;7.184;2023-11-21T11:24:05;27.50;;;23.13;;
7398;SDS011;3740;50.700;7.184;2023-11-21T11:32:37;25.30;;;22.07;;
7398;SDS011;3740;50.700;7.184;2023-11-21T11:38:16;24.10;;;21.50;;
7398;SDS011;3740;50.700;7.184;2023-11-21T11:40:46;24.73;;;21.43;;
7398;SDS011;3740;50.700;7.184;2023-11-21T11:43:12;26.93;;;23.10;;
7398;SDS011;3740;50.700;7.184;2023-11-21T11:45:38;25.67;;;22.90;;
7398;SDS011;3740;50.700;7.184;2023-11-21T11:48:07;26.00;;;22.90;;
7398;SDS011;3740;50.700;7.184;2023-11-21T11:50:38;25.93;;;22.60;;
7398;SDS011;3740;50.700;7.184;2023-11-21T11:53:14;30.10;;;25.17;;
7398;SDS011;3740;50.700;7.184;2023-11-21T11:55:40;30.80;;;24.87;;
7398;SDS011;3740;50.700;7.184;2023-11-21T11:58:06;31.30;;;26.83;;
7398;SDS011;3740;50.700;7.184;2023-11-21T12:03:00;29.47;;;24.23;;
7398;SDS011;3740;50.700;7.184;2023-11-21T12:05:28;26.20;;;23.40;;
7398;SDS011;3740;50.700;7.184;2023-11-21T12:07:58;24.97;;;22.10;;
7398;SDS011;3740;50.700;7.184;2023-11-21T12:10:27;27.50;;;24.33;;
7398;SDS011;3740;50.700;7.184;2023-11-21T12:12:55;25.30;;;22.63;;
7398;SDS011;3740;50.700;7.184;2023-11-21T12:15:21;30.43;;;25.63;;
7398;SDS011;3740;50.700;7.184;2023-11-21T12:17:47;30.33;;;25.50;;
7398;SDS011;3740;50.700;7.184;2023-11-21T12:20:14;29.67;;;26.43;;
7398;SDS011;3740;50.700;7.184;2023-11-21T12:22:43;29.60;;;24.77;;
7398;SDS011;3740;50.700;7.184;2023-11-21T12:25:17;29.87;;;25.53;;
7398;SDS011;3740;50.700;7.184;2023-11-21T12:27:47;33.70;;;28.37;;
7398;SDS011;3740;50.700;7.184;2023-11-21T12:30:17;31.73;;;27.17;;
7398;SDS011;3740;50.700;7.184;2023-11-21T12:32:44;29.67;;;26.30;;
7398;SDS011;3740;50.700;7.184;2023-11-21T12:35:13;32.67;;;26.07;;
7398;SDS011;3740;50.700;7.184;2023-11-21T12:37:39;25.03;;;22.33;;
7398;SDS011;3740;50.700;7.184;2023-11-21T12:40:07;23.90;;;21.27;;
7398;SDS011;3740;50.700;7.184;2023-11-21T12:42:36;25.97;;;23.17;;
7398;SDS011;3740;50.700;7.184;2023-11-21T12:45:09;25.53;;;21.20;;
7398;SDS011;3740;50.700;7.184;2023-11-21T12:47:43;26.00;;;23.17;;
7398;SDS011;3740;50.700;7.184;2023-11-21T12:50:12;25.43;;;22.50;;
7398;SDS011;3740;50.700;7.184;2023-11-21T12:52:46;27.77;;;23.53;;
7398;SDS011;3740;50.700;7.184;2023-11-21T12:55:16;25.37;;;21.10;;
7398;SDS011;3740;50.700;7.184;2023-11-21T12:57:51;22.77;;;19.87;;
7398;SDS011;3740;50.700;7.184;2023-11-21T13:00:20;24.80;;;21.10;;
7398;SDS011;3740;50.700;7.184;2023-11-21T13:02:53;25.73;;;21.93;;
7398;SDS011;3740;50.700;7.184;2023-11-21T13:05:35;27.27;;;22.37;;
7398;SDS011;3740;50.700;7.184;2023-11-21T13:08:09;25.37;;;20.80;;
7398;SDS011;3740;50.700;7.184;2023-11-21T13:10:38;22.03;;;19.63;;
7398;SDS011;3740;50.700;7.184;2023-11-21T13:13:07;24.40;;;19.87;;
7398;SDS011;3740;50.700;7.184;2023-11-21T13:15:38;23.63;;;21.13;;
7398;SDS011;3740;50.700;7.184;2023-11-21T13:18:05;25.00;;;20.60;;
7398;SDS011;3740;50.700;7.184;2023-11-21T13:20:32;25.77;;;22.93;;
7398;SDS011;3740;50.700;7.184;2023-11-21T13:22:58;28.33;;;24.73;;
7398;SDS011;3740;50.700;7.184;2023-11-21T13:25:30;26.37;;;23.07;;
7398;SDS011;3740;50.700;7.184;2023-11-21T13:27:59;25.27;;;21.40;;
7398;SDS011;3740;50.700;7.184;2023-11-21T13:30:28;23.87;;;21.17;;
7398;SDS011;3740;50.700;7.184;2023-11-21T13:33:03;25.33;;;22.17;;
7398;SDS011;3740;50.700;7.184;2023-11-21T13:35:36;24.73;;;20.77;;
7398;SDS011;3740;50.700;7.184;2023-11-21T13:38:07;24.53;;;21.30;;
7398;SDS011;3740;50.700;7.184;2023-11-21T13:40:34;25.80;;;20.53;;
7398;SDS011;3740;50.700;7.184;2023-11-21T13:43:07;28.00;;;22.47;;
7398;SDS011;3740;50.700;7.184;2023-11-21T13:45:35;24.77;;;21.87;;
7398;SDS011;3740;50.700;7.184;2023-11-21T13:48:04;27.80;;;23.07;;
7398;SDS011;3740;50.700;7.184;2023-11-21T13:50:35;29.37;;;24.13;;
7398;SDS011;3740;50.700;7.184;2023-11-21T13:53:04;24.70;;;21.77;;
7398;SDS011;3740;50.700;7.184;2023-11-21T13:55:44;25.33;;;20.80;;
7398;SDS011;3740;50.700;7.184;2023-11-21T13:58:10;27.70;;;23.10;;
7398;SDS011;3740;50.700;7.184;2023-11-21T14:00:42;27.33;;;24.37;;
7398;SDS011;3740;50.700;7.184;2023-11-21T14:03:13;33.20;;;24.40;;
7398;SDS011;3740;50.700;7.184;2023-11-21T14:05:45;29.50;;;21.93;;
7398;SDS011;3740;50.700;7.184;2023-11-21T14:08:19;26.73;;;21.00;;
7398;SDS011;3740;50.700;7.184;2023-11-21T14:10:46;23.00;;;20.50;;
7398;SDS011;3740;50.700;7.184;2023-11-21T14:13:22;25.70;;;20.07;;
7398;SDS011;3740;50.700;7.184;2023-11-21T14:15:52;24.50;;;20.80;;
7398;SDS011;3740;50.700;7.184;2023-11-21T14:18:23;26.00;;;21.10;;
7398;SDS011;3740;50.700;7.184;2023-11-21T14:20:56;26.07;;;20.97;;
7398;SDS011;3740;50.700;7.184;2023-11-21T14:23:22;24.17;;;20.73;;
7398;SDS011;3740;50.700;7.184;2023-11-21T14:25:48;25.30;;;20.07;;
7398;SDS011;3740;50.700;7.184;2023-11-21T14:28:15;24.67;;;19.63;;
7398;SDS011;3740;50.700;7.184;2023-11-21T14:30:40;30.00;;;20.53;;
7398;SDS011;3740;50.700;7.184;2023-11-21T14:33:07;26.57;;;20.53;;
7398;SDS011;3740;50.700;7.184;2023-11-21T14:35:34;27.00;;;19.97;;
7398;SDS011;3740;50.700;7.184;2023-11-21T14:38:00;26.80;;;20.33;;
7398;SDS011;3740;50.700;7.184;2023-11-21T14:40:33;24.63;;;19.30;;
7398;SDS011;3740;50.700;7.184;2023-11-21T14:43:00;23.90;;;19.93;;
7398;SDS011;3740;50.700;7.184;2023-11-21T14:45:32;23.13;;;20.33;;
7398;SDS011;3740;50.700;7.184;2023-11-21T14:48:01;24.13;;;19.03;;
7398;SDS011;3740;50.700;7.184;2023-11-21T14:50:41;23.93;;;19.77;;
7398;SDS011;3740;50.700;7.184;2023-11-21T14:53:10;25.60;;;19.67;;
7398;SDS011;3740;50.700;7.184;2023-11-21T14:55:37;24.60;;;19.87;;
7398;SDS011;3740;50.700;7.184;2023-11-21T14:58:16;26.67;;;19.57;;
7398;SDS011;3740;50.700;7.184;2023-11-21T15:00:51;27.07;;;22.30;;
7398;SDS011;3740;50.700;7.184;2023-11-21T15:03:23;26.70;;;20.50;;
7398;SDS011;3740;50.700;7.184;2023-11-21T15:06:02;23.73;;;19.50;;
7398;SDS011;3740;50.700;7.184;2023-11-21T15:08:49;27.77;;;21.57;;